Time,TemperatureF,DewpointF,PressureIn,WindDirection,WindDirectionDegrees,WindSpeedMPH,WindSpeedGustMPH,Humidity,HourlyPrecipIn,Conditions,Clouds,dailyrainin,SoftwareType,DateUTC
2013-08-18 00:04:00,62.3,58.0,30.15,ENE,63,0.0,0.0,86,0.00,,,0.00,weatherlink.com 1.10,2013-08-18 04:04:00,
2013-08-18 00:19:00,62.0,58.0,30.16,ENE,63,0.0,0.0,87,0.00,,,0.00,weatherlink.com 1.10,2013-08-18 04:19:00,
2013-08-18 00:36:00,61.7,58.0,30.15,ENE,63,0.0,0.0,88,0.00,,,0.00,weatherlink.com 1.10,2013-08-18 04:36:00,
2013-08-18 00:50:00,61.4,58.0,30.16,ENE,63,0.0,0.0,89,0.00,,,0.00,weatherlink.com 1.10,2013-08-18 04:50:00,
2013-08-18 01:05:00,61.4,58.0,30.16,ENE,63,0.0,0.0,89,0.00,,,0.00,weatherlink.com 1.10,2013-08-18 05:05:00,
2013-08-18 01:20:00,61.3,58.0,30.16,ENE,63,0.0,0.0,90,0.00,,,0.00,weatherlink.com 1.10,2013-08-18 05:20:00,
2013-08-18 01:36:00,61.2,58.0,30.16,ENE,63,0.0,0.0,90,0.00,,,0.00,weatherlink.com 1.10,2013-08-18 05:36:00,
2013-08-18 01:51:00,60.8,58.0,30.15,ENE,63,0.0,0.0,90,0.00,,,0.00,weatherlink.com 1.10,2013-08-18 05:51:00,
2013-08-18 02:06:00,60.8,59.0,30.15,ENE,63,0.0,0.0,92,0.00,,,0.00,weatherlink.com 1.10,2013-08-18 06:06:00,
2013-08-18 02:23:00,60.6,58.0,30.15,ENE,63,0.0,0.0,91,0.00,,,0.00,weatherlink.com 1.10,2013-08-18 06:23:00,
2013-08-18 02:37:00,60.2,58.0,30.15,ENE,63,0.0,0.0,91,0.00,,,0.00,weatherlink.com 1.10,2013-08-18 06:37:00,
2013-08-18 02:52:00,59.7,57.0,30.15,ENE,63,0.0,0.0,91,0.00,,,0.00,weatherlink.com 1.10,2013-08-18 06:52:00,
2013-08-18 03:08:00,59.8,58.0,30.15,ENE,63,0.0,0.0,92,0.00,,,0.00,weatherlink.com 1.10,2013-08-18 07:08:00,
2013-08-18 03:23:00,59.7,57.0,30.14,ENE,63,0.0,0.0,92,0.00,,,0.00,weatherlink.com 1.10,2013-08-18 07:23:00,
2013-08-18 03:39:00,59.5,57.0,30.14,ENE,63,0.0,0.0,92,0.00,,,0.00,weatherlink.com 1.10,2013-08-18 07:39:00,
2013-08-18 03:54:00,58.8,57.0,30.14,ENE,63,0.0,0.0,92,0.00,,,0.00,weatherlink.com 1.10,2013-08-18 07:54:00,
2013-08-18 04:09:00,58.3,56.0,30.14,ENE,63,0.0,0.0,92,0.00,,,0.00,weatherlink.com 1.10,2013-08-18 08:09:00,
2013-08-18 04:24:00,58.1,56.0,30.14,ENE,63,0.0,0.0,94,0.00,,,0.00,weatherlink.com 1.10,2013-08-18 08:24:00,
2013-08-18 04:39:00,57.9,56.0,30.14,ENE,63,0.0,0.0,94,0.00,,,0.00,weatherlink.com 1.10,2013-08-18 08:39:00,
2013-08-18 04:54:00,57.8,56.0,30.14,ENE,63,0.0,0.0,93,0.00,,,0.00,weatherlink.com 1.10,2013-08-18 08:54:00,
2013-08-18 05:10:00,57.6,56.0,30.14,ENE,63,0.0,0.0,94,0.00,,,0.00,weatherlink.com 1.10,2013-08-18 09:10:00,
2013-08-18 05:26:00,57.8,56.0,30.14,ENE,63,0.0,0.0,94,0.00,,,0.00,weatherlink.com 1.10,2013-08-18 09:26:00,
2013-08-18 05:40:00,57.1,55.0,30.14,ENE,63,0.0,0.0,93,0.00,,,0.00,weatherlink.com 1.10,2013-08-18 09:40:00,
2013-08-18 05:55:00,56.6,55.0,30.14,ENE,63,0.0,0.0,94,0.00,,,0.00,weatherlink.com 1.10,2013-08-18 09:55:00,
2013-08-18 06:11:00,56.6,55.0,30.14,ENE,63,0.0,0.0,94,0.00,,,0.00,weatherlink.com 1.10,2013-08-18 10:11:00,
2013-08-18 06:26:00,56.7,55.0,30.15,ENE,63,0.0,0.0,95,0.00,,,0.00,weatherlink.com 1.10,2013-08-18 10:26:00,
2013-08-18 06:41:00,57.1,56.0,30.15,ENE,63,0.0,0.0,96,0.00,,,0.00,weatherlink.com 1.10,2013-08-18 10:41:00,
2013-08-18 06:56:00,57.2,56.0,30.16,ENE,63,0.0,0.0,95,0.00,,,0.00,weatherlink.com 1.10,2013-08-18 10:56:00,
2013-08-18 07:11:00,57.1,56.0,30.16,ENE,63,0.0,0.0,95,0.00,,,0.00,weatherlink.com 1.10,2013-08-18 11:11:00,
2013-08-18 07:27:00,57.7,57.0,30.17,ENE,63,0.0,0.0,96,0.00,,,0.00,weatherlink.com 1.10,2013-08-18 11:27:00,
2013-08-18 07:43:00,58.0,57.0,30.17,ENE,63,0.0,0.0,96,0.00,,,0.00,weatherlink.com 1.10,2013-08-18 11:43:00,
2013-08-18 07:57:00,58.5,57.0,30.17,ENE,63,0.0,0.0,96,0.00,,,0.00,weatherlink.com 1.10,2013-08-18 11:57:00,
2013-08-18 08:14:00,58.9,58.0,30.18,ENE,63,0.0,1.0,95,0.00,,,0.00,weatherlink.com 1.10,2013-08-18 12:14:00,
2013-08-18 08:29:00,59.9,59.0,30.18,ENE,63,1.0,2.0,96,0.00,,,0.00,weatherlink.com 1.10,2013-08-18 12:29:00,
2013-08-18 08:44:00,61.8,61.0,30.18,ENE,63,0.0,2.0,96,0.00,,,0.00,weatherlink.com 1.10,2013-08-18 12:44:00,
2013-08-18 08:59:00,63.8,62.0,30.18,ENE,63,3.0,3.0,94,0.00,,,0.00,weatherlink.com 1.10,2013-08-18 12:59:00,
2013-08-18 09:14:00,65.7,62.0,30.19,ENE,63,2.0,3.0,89,0.00,,,0.00,weatherlink.com 1.10,2013-08-18 13:14:00,
2013-08-18 09:29:00,66.7,62.0,30.18,ENE,63,2.0,3.0,86,0.00,,,0.00,weatherlink.com 1.10,2013-08-18 13:29:00,
2013-08-18 09:44:00,67.9,63.0,30.18,ENE,63,0.0,3.0,84,0.00,,,0.00,weatherlink.com 1.10,2013-08-18 13:44:00,
2013-08-18 10:00:00,69.4,64.0,30.18,ENE,63,0.0,1.0,83,0.00,,,0.00,weatherlink.com 1.10,2013-08-18 14:00:00,
2013-08-18 10:16:00,70.3,65.0,30.19,ENE,63,0.0,3.0,82,0.00,,,0.00,weatherlink.com 1.10,2013-08-18 14:16:00,
2013-08-18 10:30:00,71.1,66.0,30.19,ENE,63,2.0,4.0,83,0.00,,,0.00,weatherlink.com 1.10,2013-08-18 14:30:00,
2013-08-18 10:45:00,72.0,66.0,30.18,ENE,63,2.0,3.0,82,0.00,,,0.00,weatherlink.com 1.10,2013-08-18 14:45:00,
2013-08-18 11:00:00,73.4,67.0,30.18,ENE,63,1.0,3.0,80,0.00,,,0.00,weatherlink.com 1.10,2013-08-18 15:00:00,
2013-08-18 11:16:00,74.1,67.0,30.18,ENE,64,1.0,5.0,78,0.00,,,0.00,weatherlink.com 1.10,2013-08-18 15:16:00,
2013-08-18 11:31:00,75.6,68.0,30.18,ENE,61,0.0,4.0,76,0.00,,,0.00,weatherlink.com 1.10,2013-08-18 15:31:00,
2013-08-18 11:46:00,76.9,68.0,30.18,NNE,32,1.0,5.0,73,0.00,,,0.00,weatherlink.com 1.10,2013-08-18 15:46:00,
2013-08-18 12:02:00,77.8,67.0,30.17,ENE,62,0.0,4.0,69,0.00,,,0.00,weatherlink.com 1.10,2013-08-18 16:02:00,
2013-08-18 12:17:00,78.3,67.0,30.17,East,98,2.0,9.0,68,0.00,,,0.00,weatherlink.com 1.10,2013-08-18 16:17:00,
2013-08-18 12:32:00,78.4,66.0,30.17,SSE,150,5.0,5.0,66,0.00,,,0.00,weatherlink.com 1.10,2013-08-18 16:32:00,
2013-08-18 12:47:00,78.3,66.0,30.16,SSE,160,3.0,9.0,66,0.00,,,0.00,weatherlink.com 1.10,2013-08-18 16:47:00,
2013-08-18 13:04:00,78.3,66.0,30.16,SSE,157,0.0,7.0,66,0.00,,,0.00,weatherlink.com 1.10,2013-08-18 17:04:00,
2013-08-18 13:19:00,79.2,64.0,30.16,ENE,73,3.0,8.0,59,0.00,,,0.00,weatherlink.com 1.10,2013-08-18 17:19:00,
2013-08-18 13:34:00,79.4,63.0,30.15,ENE,66,2.0,7.0,58,0.00,,,0.00,weatherlink.com 1.10,2013-08-18 17:34:00,
2013-08-18 13:49:00,80.7,64.0,30.15,ESE,111,4.0,10.0,57,0.00,,,0.00,weatherlink.com 1.10,2013-08-18 17:49:00,
2013-08-18 14:04:00,81.5,63.0,30.15,East,88,0.0,8.0,53,0.00,,,0.00,weatherlink.com 1.10,2013-08-18 18:04:00,
2013-08-18 14:19:00,81.5,63.0,30.14,NE,55,3.0,5.0,53,0.00,,,0.00,weatherlink.com 1.10,2013-08-18 18:19:00,
2013-08-18 14:35:00,81.7,64.0,30.14,ENE,61,5.0,10.0,55,0.00,,,0.00,weatherlink.com 1.10,2013-08-18 18:35:00,
2013-08-18 14:50:00,81.9,64.0,30.13,East,87,6.0,8.0,54,0.00,,,0.00,weatherlink.com 1.10,2013-08-18 18:50:00,
2013-08-18 15:05:00,82.2,63.0,30.13,East,90,1.0,8.0,53,0.00,,,0.00,weatherlink.com 1.10,2013-08-18 19:05:00,
2013-08-18 15:20:00,82.2,64.0,30.13,ESE,105,2.0,6.0,54,0.00,,,0.00,weatherlink.com 1.10,2013-08-18 19:20:00,
2013-08-18 15:36:00,81.6,62.0,30.12,ENE,62,5.0,9.0,52,0.00,,,0.00,weatherlink.com 1.10,2013-08-18 19:36:00,
2013-08-18 15:51:00,81.3,63.0,30.12,SE,135,4.0,9.0,54,0.00,,,0.00,weatherlink.com 1.10,2013-08-18 19:51:00,
2013-08-18 16:06:00,81.8,62.0,30.11,ENE,59,3.0,9.0,51,0.00,,,0.00,weatherlink.com 1.10,2013-08-18 20:06:00,
2013-08-18 16:21:00,81.4,63.0,30.11,SE,144,1.0,9.0,53,0.00,,,0.00,weatherlink.com 1.10,2013-08-18 20:21:00,
2013-08-18 16:37:00,81.3,62.0,30.11,ENE,59,1.0,10.0,52,0.00,,,0.00,weatherlink.com 1.10,2013-08-18 20:37:00,
2013-08-18 16:52:00,80.7,62.0,30.10,ENE,68,0.0,7.0,53,0.00,,,0.00,weatherlink.com 1.10,2013-08-18 20:52:00,
2013-08-18 17:07:00,81.8,63.0,30.10,East,94,7.0,11.0,53,0.00,,,0.00,weatherlink.com 1.10,2013-08-18 21:07:00,
2013-08-18 17:22:00,82.3,62.0,30.10,East,82,6.0,8.0,51,0.00,,,0.00,weatherlink.com 1.10,2013-08-18 21:22:00,
2013-08-18 17:39:00,80.2,63.0,30.10,East,95,2.0,5.0,55,0.00,,,0.00,weatherlink.com 1.10,2013-08-18 21:39:00,
2013-08-18 17:54:00,78.8,64.0,30.10,ESE,107,0.0,3.0,61,0.00,,,0.00,weatherlink.com 1.10,2013-08-18 21:54:00,
2013-08-18 18:09:00,77.7,68.0,30.10,ESE,107,0.0,3.0,71,0.00,,,0.00,weatherlink.com 1.10,2013-08-18 22:09:00,
2013-08-18 18:24:00,78.3,63.0,30.10,East,89,5.0,7.0,60,0.00,,,0.00,weatherlink.com 1.10,2013-08-18 22:24:00,
2013-08-18 18:39:00,81.0,64.0,30.10,ENE,60,2.0,5.0,56,0.00,,,0.00,weatherlink.com 1.10,2013-08-18 22:39:00,
2013-08-18 18:54:00,82.0,62.0,30.09,NE,40,2.0,4.0,51,0.00,,,0.00,weatherlink.com 1.10,2013-08-18 22:54:00,
2013-08-18 19:09:00,82.4,63.0,30.09,NE,51,1.0,4.0,53,0.00,,,0.00,weatherlink.com 1.10,2013-08-18 23:09:00,
2013-08-18 19:24:00,81.2,63.0,30.09,NE,53,3.0,4.0,55,0.00,,,0.00,weatherlink.com 1.10,2013-08-18 23:24:00,
2013-08-18 19:40:00,80.1,64.0,30.09,NE,53,0.0,3.0,59,0.00,,,0.00,weatherlink.com 1.10,2013-08-18 23:40:00,
2013-08-18 19:55:00,79.8,65.0,30.09,NE,53,0.0,2.0,61,0.00,,,0.00,weatherlink.com 1.10,2013-08-18 23:55:00,
2013-08-18 20:10:00,78.1,65.0,30.09,NE,53,0.0,0.0,64,0.00,,,0.00,weatherlink.com 1.10,2013-08-19 00:10:00,
2013-08-18 20:26:00,75.8,64.0,30.10,NE,53,0.0,0.0,68,0.00,,,0.00,weatherlink.com 1.10,2013-08-19 00:26:00,
2013-08-18 20:41:00,74.2,63.0,30.10,NE,53,0.0,1.0,69,0.00,,,0.00,weatherlink.com 1.10,2013-08-19 00:41:00,
2013-08-18 20:56:00,71.2,64.0,30.10,NE,53,0.0,0.0,78,0.00,,,0.00,weatherlink.com 1.10,2013-08-19 00:56:00,
2013-08-18 21:12:00,68.7,62.0,30.10,NE,53,0.0,0.0,80,0.00,,,0.00,weatherlink.com 1.10,2013-08-19 01:12:00,
2013-08-18 21:27:00,67.3,62.0,30.11,NE,53,0.0,0.0,83,0.00,,,0.00,weatherlink.com 1.10,2013-08-19 01:27:00,
2013-08-18 21:42:00,66.2,62.0,30.11,NE,53,0.0,0.0,85,0.00,,,0.00,weatherlink.com 1.10,2013-08-19 01:42:00,
2013-08-18 21:57:00,65.5,61.0,30.11,NE,53,0.0,0.0,85,0.00,,,0.00,weatherlink.com 1.10,2013-08-19 01:57:00,
2013-08-18 22:12:00,64.9,61.0,30.12,NE,53,0.0,0.0,87,0.00,,,0.00,weatherlink.com 1.10,2013-08-19 02:12:00,
2013-08-18 22:29:00,64.0,60.0,30.12,NE,53,0.0,0.0,88,0.00,,,0.00,weatherlink.com 1.10,2013-08-19 02:29:00,
2013-08-18 22:44:00,63.4,60.0,30.11,NE,53,0.0,1.0,89,0.00,,,0.00,weatherlink.com 1.10,2013-08-19 02:44:00,
2013-08-18 22:59:00,63.0,60.0,30.11,NE,53,0.0,0.0,90,0.00,,,0.00,weatherlink.com 1.10,2013-08-19 02:59:00,
2013-08-18 23:14:00,62.5,60.0,30.11,NE,53,0.0,0.0,91,0.00,,,0.00,weatherlink.com 1.10,2013-08-19 03:14:00,
2013-08-18 23:29:00,62.1,60.0,30.12,NE,53,0.0,0.0,92,0.00,,,0.00,weatherlink.com 1.10,2013-08-19 03:29:00,
2013-08-18 23:44:00,61.7,60.0,30.11,NE,53,0.0,0.0,93,0.00,,,0.00,weatherlink.com 1.10,2013-08-19 03:44:00,
2013-08-18 23:59:00,61.4,59.0,30.11,NE,53,0.0,0.0,93,0.00,,,0.00,weatherlink.com 1.10,2013-08-19 03:59:00,